Terminal Aerodrome Forecast
Issued by NWS Cleveland, OH

Home | Current Version | Previous Version | Graphics & Text | Print | Product List | Glossary On
Versions: 1 2 3 4 5 6 7 8 9 10 11 12 13 14 15 16 17 18 19 20 21
555
FTUS41 KCLE 121133
TAFMFD
TAF
KMFD 121133Z 1212/1312 31015G25KT 3SM -SN OVC006
      TEMPO 1212/1214 6SM -SN OVC012
     FM121400 30015G25KT P6SM OVC015
     FM121700 30018G28KT P6SM OVC040=

USA.gov is the U.S. government's official web portal to all federal, state and local government web resources and services.